West Terre Haute, Indiana
Current Conditions -  °F | °C
As of 12:53 AM on Wednesday 26 Nov 2014 (Local Time) from KHUF Reporting Station
Overcast Overcast  
Wind Chill: -2°   Ceiling: 1700
Heat Index: -2°   Visibility: 10mi
Dew Point: -6°   Wind: 3mph
Humidity: 75%   Direction: 70°ENE
Pressure: 30.19"   Gusts: NA
Location:  39.47°N, 87.45°W
Report Text: KHUF 260553Z 07003KT 10SM OVC017 M02/M06 A3019 RMK AO2 SLP229 T10221061 11017 21022 58009
Loading
Personal Weather Stations






























Interactive Weather Map New forecast layout! Learn more

10-Day Weather Forecast

Advertisements
Track Severe Weather on mobile